sensor_id;sensor_type;location;lat;lon;timestamp;P1;durP1;ratioP1;P2;durP2;ratioP2
6523;SDS011;3295;38.928;-77.052;2023-05-17T00:02:13;5.50;;;2.53;;
6523;SDS011;3295;38.928;-77.052;2023-05-17T00:04:40;4.37;;;2.80;;
6523;SDS011;3295;38.928;-77.052;2023-05-17T00:07:09;4.17;;;2.90;;
6523;SDS011;3295;38.928;-77.052;2023-05-17T00:09:36;4.73;;;3.00;;
6523;SDS011;3295;38.928;-77.052;2023-05-17T00:12:03;5.13;;;3.00;;
6523;SDS011;3295;38.928;-77.052;2023-05-17T00:14:31;5.50;;;2.80;;
6523;SDS011;3295;38.928;-77.052;2023-05-17T00:16:59;6.23;;;2.80;;
6523;SDS011;3295;38.928;-77.052;2023-05-17T00:19:27;4.43;;;2.80;;
6523;SDS011;3295;38.928;-77.052;2023-05-17T00:21:54;4.70;;;2.60;;
6523;SDS011;3295;38.928;-77.052;2023-05-17T00:24:21;5.43;;;3.20;;
6523;SDS011;3295;38.928;-77.052;2023-05-17T00:26:48;5.03;;;2.83;;
6523;SDS011;3295;38.928;-77.052;2023-05-17T00:29:16;4.23;;;2.63;;
6523;SDS011;3295;38.928;-77.052;2023-05-17T00:31:43;4.33;;;2.83;;
6523;SDS011;3295;38.928;-77.052;2023-05-17T00:34:12;4.03;;;2.77;;
6523;SDS011;3295;38.928;-77.052;2023-05-17T00:36:42;7.03;;;3.13;;
6523;SDS011;3295;38.928;-77.052;2023-05-17T00:39:09;4.57;;;2.90;;
6523;SDS011;3295;38.928;-77.052;2023-05-17T00:41:36;4.60;;;2.93;;
6523;SDS011;3295;38.928;-77.052;2023-05-17T00:44:04;4.67;;;2.90;;
6523;SDS011;3295;38.928;-77.052;2023-05-17T00:46:31;4.77;;;2.97;;
6523;SDS011;3295;38.928;-77.052;2023-05-17T00:48:59;3.50;;;2.73;;
6523;SDS011;3295;38.928;-77.052;2023-05-17T00:51:28;4.80;;;2.97;;
6523;SDS011;3295;38.928;-77.052;2023-05-17T00:53:56;4.63;;;2.70;;
6523;SDS011;3295;38.928;-77.052;2023-05-17T00:56:23;5.20;;;3.03;;
6523;SDS011;3295;38.928;-77.052;2023-05-17T00:58:50;4.73;;;2.87;;
6523;SDS011;3295;38.928;-77.052;2023-05-17T01:01:18;6.13;;;3.10;;
6523;SDS011;3295;38.928;-77.052;2023-05-17T01:03:46;6.47;;;3.20;;
6523;SDS011;3295;38.928;-77.052;2023-05-17T01:06:14;6.23;;;3.07;;
6523;SDS011;3295;38.928;-77.052;2023-05-17T01:08:42;6.13;;;2.97;;
6523;SDS011;3295;38.928;-77.052;2023-05-17T01:11:13;5.07;;;2.90;;
6523;SDS011;3295;38.928;-77.052;2023-05-17T01:13:41;4.77;;;3.20;;
6523;SDS011;3295;38.928;-77.052;2023-05-17T01:16:09;6.53;;;3.27;;
6523;SDS011;3295;38.928;-77.052;2023-05-17T01:18:40;6.27;;;3.07;;
6523;SDS011;3295;38.928;-77.052;2023-05-17T01:21:13;4.27;;;3.17;;
6523;SDS011;3295;38.928;-77.052;2023-05-17T01:23:47;5.23;;;2.90;;
6523;SDS011;3295;38.928;-77.052;2023-05-17T01:26:17;4.30;;;2.93;;
6523;SDS011;3295;38.928;-77.052;2023-05-17T01:28:48;4.73;;;3.07;;
6523;SDS011;3295;38.928;-77.052;2023-05-17T01:31:17;5.63;;;3.20;;
6523;SDS011;3295;38.928;-77.052;2023-05-17T01:33:45;5.13;;;3.10;;
6523;SDS011;3295;38.928;-77.052;2023-05-17T01:36:12;4.77;;;3.00;;
6523;SDS011;3295;38.928;-77.052;2023-05-17T01:38:39;5.63;;;3.10;;
6523;SDS011;3295;38.928;-77.052;2023-05-17T01:41:09;5.53;;;3.13;;
6523;SDS011;3295;38.928;-77.052;2023-05-17T01:43:40;4.20;;;3.10;;
6523;SDS011;3295;38.928;-77.052;2023-05-17T01:46:11;4.50;;;3.37;;
6523;SDS011;3295;38.928;-77.052;2023-05-17T01:48:43;5.70;;;2.97;;
6523;SDS011;3295;38.928;-77.052;2023-05-17T01:51:11;6.20;;;3.03;;
6523;SDS011;3295;38.928;-77.052;2023-05-17T01:53:43;5.03;;;3.13;;
6523;SDS011;3295;38.928;-77.052;2023-05-17T01:56:13;6.23;;;3.50;;
6523;SDS011;3295;38.928;-77.052;2023-05-17T01:58:43;4.27;;;3.17;;
6523;SDS011;3295;38.928;-77.052;2023-05-17T02:01:13;5.47;;;3.27;;
6523;SDS011;3295;38.928;-77.052;2023-05-17T02:03:42;6.13;;;3.00;;
6523;SDS011;3295;38.928;-77.052;2023-05-17T02:06:09;6.40;;;3.37;;
6523;SDS011;3295;38.928;-77.052;2023-05-17T02:08:37;6.13;;;3.10;;
6523;SDS011;3295;38.928;-77.052;2023-05-17T02:11:04;4.87;;;3.40;;
6523;SDS011;3295;38.928;-77.052;2023-05-17T02:13:31;5.13;;;3.33;;
6523;SDS011;3295;38.928;-77.052;2023-05-17T02:15:59;4.17;;;3.00;;
6523;SDS011;3295;38.928;-77.052;2023-05-17T02:18:28;6.90;;;3.50;;
6523;SDS011;3295;38.928;-77.052;2023-05-17T02:20:56;5.37;;;3.30;;
6523;SDS011;3295;38.928;-77.052;2023-05-17T02:23:24;5.20;;;3.40;;
6523;SDS011;3295;38.928;-77.052;2023-05-17T02:25:51;5.23;;;3.40;;
6523;SDS011;3295;38.928;-77.052;2023-05-17T02:28:18;5.90;;;3.20;;
6523;SDS011;3295;38.928;-77.052;2023-05-17T02:30:45;5.47;;;3.63;;
6523;SDS011;3295;38.928;-77.052;2023-05-17T02:33:13;5.23;;;3.50;;
6523;SDS011;3295;38.928;-77.052;2023-05-17T02:35:47;5.90;;;3.67;;
6523;SDS011;3295;38.928;-77.052;2023-05-17T02:38:26;4.87;;;3.20;;
6523;SDS011;3295;38.928;-77.052;2023-05-17T02:40:53;6.50;;;3.53;;
6523;SDS011;3295;38.928;-77.052;2023-05-17T02:43:21;4.83;;;2.80;;
6523;SDS011;3295;38.928;-77.052;2023-05-17T02:45:48;6.20;;;3.53;;
6523;SDS011;3295;38.928;-77.052;2023-05-17T02:48:15;5.10;;;3.07;;
6523;SDS011;3295;38.928;-77.052;2023-05-17T02:50:44;5.00;;;3.33;;
6523;SDS011;3295;38.928;-77.052;2023-05-17T02:53:11;5.50;;;3.50;;
6523;SDS011;3295;38.928;-77.052;2023-05-17T02:55:38;5.30;;;3.20;;
6523;SDS011;3295;38.928;-77.052;2023-05-17T02:58:05;5.10;;;3.57;;
6523;SDS011;3295;38.928;-77.052;2023-05-17T03:00:32;4.90;;;3.03;;
6523;SDS011;3295;38.928;-77.052;2023-05-17T03:03:00;5.47;;;3.00;;
6523;SDS011;3295;38.928;-77.052;2023-05-17T03:05:27;5.90;;;3.67;;
6523;SDS011;3295;38.928;-77.052;2023-05-17T03:07:56;5.37;;;3.13;;
6523;SDS011;3295;38.928;-77.052;2023-05-17T03:10:23;4.67;;;3.07;;
6523;SDS011;3295;38.928;-77.052;2023-05-17T03:12:50;5.43;;;3.37;;
6523;SDS011;3295;38.928;-77.052;2023-05-17T03:15:18;5.93;;;3.57;;
6523;SDS011;3295;38.928;-77.052;2023-05-17T03:17:45;6.33;;;3.63;;
6523;SDS011;3295;38.928;-77.052;2023-05-17T03:20:12;4.43;;;3.03;;
6523;SDS011;3295;38.928;-77.052;2023-05-17T03:22:39;5.80;;;3.40;;
6523;SDS011;3295;38.928;-77.052;2023-05-17T03:25:08;4.00;;;3.10;;
6523;SDS011;3295;38.928;-77.052;2023-05-17T03:27:35;5.37;;;3.17;;
6523;SDS011;3295;38.928;-77.052;2023-05-17T03:30:03;4.53;;;3.00;;
6523;SDS011;3295;38.928;-77.052;2023-05-17T03:32:30;5.40;;;3.40;;
6523;SDS011;3295;38.928;-77.052;2023-05-17T03:34:57;5.70;;;3.13;;
6523;SDS011;3295;38.928;-77.052;2023-05-17T03:37:25;4.83;;;3.07;;
6523;SDS011;3295;38.928;-77.052;2023-05-17T03:39:52;4.07;;;2.93;;
6523;SDS011;3295;38.928;-77.052;2023-05-17T03:42:21;4.83;;;2.90;;
6523;SDS011;3295;38.928;-77.052;2023-05-17T03:44:48;5.00;;;3.03;;
6523;SDS011;3295;38.928;-77.052;2023-05-17T03:47:15;5.90;;;3.20;;
6523;SDS011;3295;38.928;-77.052;2023-05-17T03:49:42;4.60;;;2.97;;
6523;SDS011;3295;38.928;-77.052;2023-05-17T03:52:10;11.07;;;2.93;;
6523;SDS011;3295;38.928;-77.052;2023-05-17T03:54:37;5.03;;;3.00;;
6523;SDS011;3295;38.928;-77.052;2023-05-17T03:57:05;4.40;;;3.00;;
6523;SDS011;3295;38.928;-77.052;2023-05-17T03:59:33;5.17;;;3.00;;
6523;SDS011;3295;38.928;-77.052;2023-05-17T04:02:01;5.83;;;3.07;;
6523;SDS011;3295;38.928;-77.052;2023-05-17T04:04:28;3.83;;;2.77;;
6523;SDS011;3295;38.928;-77.052;2023-05-17T04:06:55;6.17;;;2.87;;
6523;SDS011;3295;38.928;-77.052;2023-05-17T04:09:22;4.80;;;2.97;;
6523;SDS011;3295;38.928;-77.052;2023-05-17T04:11:50;5.50;;;2.70;;
6523;SDS011;3295;38.928;-77.052;2023-05-17T04:14:17;4.20;;;2.80;;
6523;SDS011;3295;38.928;-77.052;2023-05-17T04:16:46;4.43;;;2.90;;
6523;SDS011;3295;38.928;-77.052;2023-05-17T04:19:13;5.37;;;2.67;;
6523;SDS011;3295;38.928;-77.052;2023-05-17T04:21:40;4.57;;;2.90;;
6523;SDS011;3295;38.928;-77.052;2023-05-17T04:24:08;3.87;;;2.40;;
6523;SDS011;3295;38.928;-77.052;2023-05-17T04:26:35;4.67;;;2.80;;
6523;SDS011;3295;38.928;-77.052;2023-05-17T04:29:02;4.60;;;2.90;;
6523;SDS011;3295;38.928;-77.052;2023-05-17T04:31:30;3.77;;;2.60;;
6523;SDS011;3295;38.928;-77.052;2023-05-17T04:33:59;5.67;;;2.83;;
6523;SDS011;3295;38.928;-77.052;2023-05-17T04:36:26;4.27;;;2.80;;
6523;SDS011;3295;38.928;-77.052;2023-05-17T04:38:54;3.83;;;2.37;;
6523;SDS011;3295;38.928;-77.052;2023-05-17T04:41:21;4.03;;;2.60;;
6523;SDS011;3295;38.928;-77.052;2023-05-17T04:43:49;4.33;;;2.70;;
6523;SDS011;3295;38.928;-77.052;2023-05-17T04:46:16;4.83;;;2.83;;
6523;SDS011;3295;38.928;-77.052;2023-05-17T04:48:43;4.17;;;2.90;;
6523;SDS011;3295;38.928;-77.052;2023-05-17T04:51:13;3.43;;;2.50;;
6523;SDS011;3295;38.928;-77.052;2023-05-17T04:53:40;4.27;;;2.70;;
6523;SDS011;3295;38.928;-77.052;2023-05-17T04:56:07;3.53;;;2.60;;
6523;SDS011;3295;38.928;-77.052;2023-05-17T04:58:34;4.67;;;2.53;;
6523;SDS011;3295;38.928;-77.052;2023-05-17T05:01:02;4.47;;;2.47;;
6523;SDS011;3295;38.928;-77.052;2023-05-17T05:03:29;4.00;;;2.50;;
6523;SDS011;3295;38.928;-77.052;2023-05-17T05:05:56;4.17;;;2.63;;
6523;SDS011;3295;38.928;-77.052;2023-05-17T05:08:25;3.87;;;2.47;;
6523;SDS011;3295;38.928;-77.052;2023-05-17T05:10:52;4.50;;;2.53;;
6523;SDS011;3295;38.928;-77.052;2023-05-17T05:13:20;4.60;;;2.50;;
6523;SDS011;3295;38.928;-77.052;2023-05-17T05:15:47;4.30;;;2.70;;
6523;SDS011;3295;38.928;-77.052;2023-05-17T05:18:15;3.77;;;2.50;;
6523;SDS011;3295;38.928;-77.052;2023-05-17T05:20:42;3.70;;;2.67;;
6523;SDS011;3295;38.928;-77.052;2023-05-17T05:23:09;4.37;;;2.60;;
6523;SDS011;3295;38.928;-77.052;2023-05-17T05:25:38;3.97;;;2.53;;
6523;SDS011;3295;38.928;-77.052;2023-05-17T05:28:06;3.77;;;2.40;;
6523;SDS011;3295;38.928;-77.052;2023-05-17T05:30:33;4.33;;;2.63;;
6523;SDS011;3295;38.928;-77.052;2023-05-17T05:33:00;4.10;;;2.47;;
6523;SDS011;3295;38.928;-77.052;2023-05-17T05:35:27;5.57;;;2.80;;
6523;SDS011;3295;38.928;-77.052;2023-05-17T05:37:55;4.20;;;2.70;;
6523;SDS011;3295;38.928;-77.052;2023-05-17T05:40:22;3.83;;;2.47;;
6523;SDS011;3295;38.928;-77.052;2023-05-17T05:42:51;6.23;;;2.60;;
6523;SDS011;3295;38.928;-77.052;2023-05-17T05:45:18;3.20;;;2.43;;
6523;SDS011;3295;38.928;-77.052;2023-05-17T05:47:46;5.17;;;2.77;;
6523;SDS011;3295;38.928;-77.052;2023-05-17T05:50:13;3.47;;;2.40;;
6523;SDS011;3295;38.928;-77.052;2023-05-17T05:52:40;5.30;;;2.57;;
6523;SDS011;3295;38.928;-77.052;2023-05-17T05:55:08;3.90;;;2.47;;
6523;SDS011;3295;38.928;-77.052;2023-05-17T05:57:35;3.60;;;2.60;;
6523;SDS011;3295;38.928;-77.052;2023-05-17T06:00:05;4.40;;;2.80;;
6523;SDS011;3295;38.928;-77.052;2023-05-17T06:02:32;4.87;;;2.50;;
6523;SDS011;3295;38.928;-77.052;2023-05-17T06:04:59;3.60;;;2.30;;
6523;SDS011;3295;38.928;-77.052;2023-05-17T06:07:28;3.70;;;2.27;;
6523;SDS011;3295;38.928;-77.052;2023-05-17T06:09:55;3.87;;;2.40;;
6523;SDS011;3295;38.928;-77.052;2023-05-17T06:12:22;4.43;;;2.67;;
6523;SDS011;3295;38.928;-77.052;2023-05-17T06:14:49;3.43;;;2.40;;
6523;SDS011;3295;38.928;-77.052;2023-05-17T06:17:18;4.13;;;2.30;;
6523;SDS011;3295;38.928;-77.052;2023-05-17T06:19:45;3.57;;;2.33;;
6523;SDS011;3295;38.928;-77.052;2023-05-17T06:22:14;4.10;;;2.47;;
6523;SDS011;3295;38.928;-77.052;2023-05-17T06:24:41;4.23;;;2.67;;
6523;SDS011;3295;38.928;-77.052;2023-05-17T06:27:08;3.97;;;2.30;;
6523;SDS011;3295;38.928;-77.052;2023-05-17T06:29:36;4.63;;;2.50;;
6523;SDS011;3295;38.928;-77.052;2023-05-17T06:32:03;3.00;;;2.20;;
6523;SDS011;3295;38.928;-77.052;2023-05-17T06:34:32;4.70;;;2.77;;
6523;SDS011;3295;38.928;-77.052;2023-05-17T06:36:59;4.03;;;2.70;;
6523;SDS011;3295;38.928;-77.052;2023-05-17T06:39:26;3.80;;;2.80;;
6523;SDS011;3295;38.928;-77.052;2023-05-17T06:41:54;4.30;;;2.67;;
6523;SDS011;3295;38.928;-77.052;2023-05-17T06:44:21;3.33;;;2.40;;
6523;SDS011;3295;38.928;-77.052;2023-05-17T06:46:48;4.10;;;2.50;;
6523;SDS011;3295;38.928;-77.052;2023-05-17T06:49:15;5.30;;;2.47;;
6523;SDS011;3295;38.928;-77.052;2023-05-17T06:51:44;3.57;;;2.67;;
6523;SDS011;3295;38.928;-77.052;2023-05-17T06:54:13;3.37;;;2.33;;
6523;SDS011;3295;38.928;-77.052;2023-05-17T06:56:41;4.03;;;2.60;;
6523;SDS011;3295;38.928;-77.052;2023-05-17T06:59:08;3.57;;;2.60;;
6523;SDS011;3295;38.928;-77.052;2023-05-17T07:01:36;4.77;;;2.50;;
6523;SDS011;3295;38.928;-77.052;2023-05-17T07:04:04;4.43;;;2.40;;
6523;SDS011;3295;38.928;-77.052;2023-05-17T07:06:31;4.37;;;2.80;;
6523;SDS011;3295;38.928;-77.052;2023-05-17T07:09:00;4.53;;;2.50;;
6523;SDS011;3295;38.928;-77.052;2023-05-17T07:11:27;4.47;;;2.60;;
6523;SDS011;3295;38.928;-77.052;2023-05-17T07:13:54;3.27;;;2.50;;
6523;SDS011;3295;38.928;-77.052;2023-05-17T07:16:21;3.80;;;2.40;;
6523;SDS011;3295;38.928;-77.052;2023-05-17T07:18:49;4.03;;;2.47;;
6523;SDS011;3295;38.928;-77.052;2023-05-17T07:21:16;7.90;;;2.53;;
6523;SDS011;3295;38.928;-77.052;2023-05-17T07:23:43;3.87;;;2.57;;
6523;SDS011;3295;38.928;-77.052;2023-05-17T07:26:12;5.10;;;3.00;;
6523;SDS011;3295;38.928;-77.052;2023-05-17T07:28:39;4.63;;;2.70;;
6523;SDS011;3295;38.928;-77.052;2023-05-17T07:31:06;4.67;;;2.83;;
6523;SDS011;3295;38.928;-77.052;2023-05-17T07:33:33;5.60;;;2.60;;
6523;SDS011;3295;38.928;-77.052;2023-05-17T07:36:00;3.93;;;2.43;;
6523;SDS011;3295;38.928;-77.052;2023-05-17T07:38:28;3.43;;;2.50;;
6523;SDS011;3295;38.928;-77.052;2023-05-17T07:40:55;3.97;;;2.43;;
6523;SDS011;3295;38.928;-77.052;2023-05-17T07:43:24;3.77;;;2.50;;
6523;SDS011;3295;38.928;-77.052;2023-05-17T07:45:51;4.40;;;2.70;;
6523;SDS011;3295;38.928;-77.052;2023-05-17T07:48:19;4.63;;;2.90;;
6523;SDS011;3295;38.928;-77.052;2023-05-17T07:50:46;4.37;;;2.50;;
6523;SDS011;3295;38.928;-77.052;2023-05-17T07:53:14;4.37;;;2.60;;
6523;SDS011;3295;38.928;-77.052;2023-05-17T07:55:41;3.97;;;2.67;;
6523;SDS011;3295;38.928;-77.052;2023-05-17T07:58:08;4.80;;;2.60;;
6523;SDS011;3295;38.928;-77.052;2023-05-17T08:00:37;3.70;;;2.50;;
6523;SDS011;3295;38.928;-77.052;2023-05-17T08:03:05;5.80;;;2.90;;
6523;SDS011;3295;38.928;-77.052;2023-05-17T08:05:33;3.73;;;2.67;;
6523;SDS011;3295;38.928;-77.052;2023-05-17T08:08:00;5.70;;;2.30;;
6523;SDS011;3295;38.928;-77.052;2023-05-17T08:10:27;4.03;;;2.30;;
6523;SDS011;3295;38.928;-77.052;2023-05-17T08:12:54;4.90;;;2.80;;
6523;SDS011;3295;38.928;-77.052;2023-05-17T08:15:22;4.17;;;2.30;;
6523;SDS011;3295;38.928;-77.052;2023-05-17T08:17:50;3.97;;;2.60;;
6523;SDS011;3295;38.928;-77.052;2023-05-17T08:20:17;4.33;;;2.50;;
6523;SDS011;3295;38.928;-77.052;2023-05-17T08:22:45;4.00;;;2.70;;
6523;SDS011;3295;38.928;-77.052;2023-05-17T08:25:12;4.17;;;2.57;;
6523;SDS011;3295;38.928;-77.052;2023-05-17T08:27:39;4.40;;;2.73;;
6523;SDS011;3295;38.928;-77.052;2023-05-17T08:30:07;4.27;;;2.77;;
6523;SDS011;3295;38.928;-77.052;2023-05-17T08:32:34;5.50;;;3.00;;
6523;SDS011;3295;38.928;-77.052;2023-05-17T08:35:03;3.90;;;2.43;;
6523;SDS011;3295;38.928;-77.052;2023-05-17T08:37:31;4.37;;;2.53;;
6523;SDS011;3295;38.928;-77.052;2023-05-17T08:39:58;7.00;;;3.13;;
6523;SDS011;3295;38.928;-77.052;2023-05-17T08:42:25;3.50;;;2.30;;
6523;SDS011;3295;38.928;-77.052;2023-05-17T08:44:53;4.40;;;2.57;;
6523;SDS011;3295;38.928;-77.052;2023-05-17T08:47:21;4.27;;;2.30;;
6523;SDS011;3295;38.928;-77.052;2023-05-17T08:49:58;4.47;;;2.67;;
6523;SDS011;3295;38.928;-77.052;2023-05-17T08:52:30;3.80;;;2.30;;
6523;SDS011;3295;38.928;-77.052;2023-05-17T08:54:58;3.20;;;2.43;;
6523;SDS011;3295;38.928;-77.052;2023-05-17T08:57:25;5.40;;;2.60;;
6523;SDS011;3295;38.928;-77.052;2023-05-17T08:59:54;3.77;;;2.23;;
6523;SDS011;3295;38.928;-77.052;2023-05-17T09:02:22;4.43;;;2.30;;
6523;SDS011;3295;38.928;-77.052;2023-05-17T09:04:49;5.33;;;2.70;;
6523;SDS011;3295;38.928;-77.052;2023-05-17T09:07:20;3.40;;;2.47;;
6523;SDS011;3295;38.928;-77.052;2023-05-17T09:09:51;5.33;;;2.70;;
6523;SDS011;3295;38.928;-77.052;2023-05-17T09:12:18;4.57;;;2.80;;
6523;SDS011;3295;38.928;-77.052;2023-05-17T09:14:46;3.83;;;2.60;;
6523;SDS011;3295;38.928;-77.052;2023-05-17T09:17:13;5.27;;;2.60;;
6523;SDS011;3295;38.928;-77.052;2023-05-17T09:19:42;3.70;;;2.40;;
6523;SDS011;3295;38.928;-77.052;2023-05-17T09:22:13;3.93;;;2.53;;
6523;SDS011;3295;38.928;-77.052;2023-05-17T09:24:43;3.67;;;2.30;;
6523;SDS011;3295;38.928;-77.052;2023-05-17T09:27:15;4.43;;;2.57;;
6523;SDS011;3295;38.928;-77.052;2023-05-17T09:29:43;4.73;;;2.80;;
6523;SDS011;3295;38.928;-77.052;2023-05-17T09:32:14;3.47;;;2.27;;
6523;SDS011;3295;38.928;-77.052;2023-05-17T09:34:41;4.50;;;2.33;;
6523;SDS011;3295;38.928;-77.052;2023-05-17T09:37:13;6.37;;;2.43;;
6523;SDS011;3295;38.928;-77.052;2023-05-17T09:39:41;5.73;;;2.17;;
6523;SDS011;3295;38.928;-77.052;2023-05-17T09:42:09;2.83;;;2.37;;
6523;SDS011;3295;38.928;-77.052;2023-05-17T09:44:48;4.53;;;2.50;;
6523;SDS011;3295;38.928;-77.052;2023-05-17T09:47:23;3.53;;;2.33;;
6523;SDS011;3295;38.928;-77.052;2023-05-17T09:49:50;6.57;;;3.00;;
6523;SDS011;3295;38.928;-77.052;2023-05-17T09:52:17;4.40;;;2.47;;
6523;SDS011;3295;38.928;-77.052;2023-05-17T09:54:51;4.03;;;2.57;;
6523;SDS011;3295;38.928;-77.052;2023-05-17T09:57:19;5.07;;;2.47;;
6523;SDS011;3295;38.928;-77.052;2023-05-17T09:59:48;5.57;;;2.63;;
6523;SDS011;3295;38.928;-77.052;2023-05-17T10:02:18;5.27;;;2.43;;
6523;SDS011;3295;38.928;-77.052;2023-05-17T10:04:46;5.10;;;2.57;;
6523;SDS011;3295;38.928;-77.052;2023-05-17T10:07:15;5.13;;;2.63;;
6523;SDS011;3295;38.928;-77.052;2023-05-17T10:09:44;3.50;;;2.27;;
6523;SDS011;3295;38.928;-77.052;2023-05-17T10:12:12;3.50;;;2.53;;
6523;SDS011;3295;38.928;-77.052;2023-05-17T10:14:40;3.70;;;2.43;;
6523;SDS011;3295;38.928;-77.052;2023-05-17T10:17:10;4.43;;;2.70;;
6523;SDS011;3295;38.928;-77.052;2023-05-17T10:19:38;4.90;;;2.30;;
6523;SDS011;3295;38.928;-77.052;2023-05-17T10:22:06;3.83;;;2.50;;
6523;SDS011;3295;38.928;-77.052;2023-05-17T10:24:33;4.37;;;2.57;;
6523;SDS011;3295;38.928;-77.052;2023-05-17T10:27:01;4.07;;;2.40;;
6523;SDS011;3295;38.928;-77.052;2023-05-17T10:29:28;5.13;;;2.77;;
6523;SDS011;3295;38.928;-77.052;2023-05-17T10:31:57;4.57;;;2.60;;
6523;SDS011;3295;38.928;-77.052;2023-05-17T10:34:26;4.80;;;2.40;;
6523;SDS011;3295;38.928;-77.052;2023-05-17T10:36:55;4.23;;;2.83;;
6523;SDS011;3295;38.928;-77.052;2023-05-17T10:39:23;3.40;;;2.23;;
6523;SDS011;3295;38.928;-77.052;2023-05-17T10:41:51;5.40;;;2.90;;
6523;SDS011;3295;38.928;-77.052;2023-05-17T10:44:19;4.30;;;2.63;;
6523;SDS011;3295;38.928;-77.052;2023-05-17T10:46:52;6.17;;;2.40;;
6523;SDS011;3295;38.928;-77.052;2023-05-17T10:49:22;3.90;;;2.47;;
6523;SDS011;3295;38.928;-77.052;2023-05-17T10:51:51;4.00;;;2.50;;
6523;SDS011;3295;38.928;-77.052;2023-05-17T10:54:18;3.83;;;2.50;;
6523;SDS011;3295;38.928;-77.052;2023-05-17T10:56:46;4.93;;;2.57;;
6523;SDS011;3295;38.928;-77.052;2023-05-17T10:59:14;4.13;;;2.53;;
6523;SDS011;3295;38.928;-77.052;2023-05-17T11:01:52;3.97;;;2.60;;
6523;SDS011;3295;38.928;-77.052;2023-05-17T11:04:22;4.87;;;2.80;;
6523;SDS011;3295;38.928;-77.052;2023-05-17T11:06:55;4.60;;;2.60;;
6523;SDS011;3295;38.928;-77.052;2023-05-17T11:09:43;4.77;;;2.97;;
6523;SDS011;3295;38.928;-77.052;2023-05-17T11:12:11;4.20;;;2.30;;
6523;SDS011;3295;38.928;-77.052;2023-05-17T11:14:42;4.17;;;2.40;;
6523;SDS011;3295;38.928;-77.052;2023-05-17T11:17:12;6.13;;;2.60;;
6523;SDS011;3295;38.928;-77.052;2023-05-17T11:19:47;4.23;;;2.43;;
6523;SDS011;3295;38.928;-77.052;2023-05-17T11:22:16;5.30;;;2.47;;
6523;SDS011;3295;38.928;-77.052;2023-05-17T11:24:44;4.53;;;2.63;;
6523;SDS011;3295;38.928;-77.052;2023-05-17T11:27:11;4.23;;;2.63;;
6523;SDS011;3295;38.928;-77.052;2023-05-17T11:29:40;4.63;;;2.80;;
6523;SDS011;3295;38.928;-77.052;2023-05-17T11:32:09;4.60;;;2.77;;
6523;SDS011;3295;38.928;-77.052;2023-05-17T11:34:36;4.97;;;2.70;;
6523;SDS011;3295;38.928;-77.052;2023-05-17T11:37:03;3.77;;;2.67;;
6523;SDS011;3295;38.928;-77.052;2023-05-17T11:39:37;5.03;;;2.80;;
6523;SDS011;3295;38.928;-77.052;2023-05-17T11:42:25;5.03;;;2.67;;
6523;SDS011;3295;38.928;-77.052;2023-05-17T11:44:52;6.27;;;2.97;;
6523;SDS011;3295;38.928;-77.052;2023-05-17T11:47:22;3.77;;;2.50;;
6523;SDS011;3295;38.928;-77.052;2023-05-17T11:49:50;5.50;;;2.93;;
6523;SDS011;3295;38.928;-77.052;2023-05-17T11:52:17;4.40;;;2.53;;
6523;SDS011;3295;38.928;-77.052;2023-05-17T11:54:46;4.87;;;2.70;;
6523;SDS011;3295;38.928;-77.052;2023-05-17T11:57:14;4.10;;;2.30;;
6523;SDS011;3295;38.928;-77.052;2023-05-17T11:59:42;6.27;;;2.70;;
6523;SDS011;3295;38.928;-77.052;2023-05-17T12:02:10;5.30;;;3.00;;
6523;SDS011;3295;38.928;-77.052;2023-05-17T12:04:51;4.93;;;2.90;;
6523;SDS011;3295;38.928;-77.052;2023-05-17T12:07:18;4.87;;;2.60;;
6523;SDS011;3295;38.928;-77.052;2023-05-17T12:09:47;4.67;;;2.77;;
6523;SDS011;3295;38.928;-77.052;2023-05-17T12:12:15;4.80;;;2.63;;
6523;SDS011;3295;38.928;-77.052;2023-05-17T12:14:43;3.97;;;2.50;;
6523;SDS011;3295;38.928;-77.052;2023-05-17T12:17:19;4.10;;;2.73;;
6523;SDS011;3295;38.928;-77.052;2023-05-17T12:19:50;4.37;;;2.80;;
6523;SDS011;3295;38.928;-77.052;2023-05-17T12:22:18;6.07;;;3.00;;
6523;SDS011;3295;38.928;-77.052;2023-05-17T12:24:46;3.80;;;2.60;;
6523;SDS011;3295;38.928;-77.052;2023-05-17T12:27:14;4.30;;;2.93;;
6523;SDS011;3295;38.928;-77.052;2023-05-17T12:29:50;4.70;;;2.50;;
6523;SDS011;3295;38.928;-77.052;2023-05-17T12:32:17;4.37;;;2.60;;
6523;SDS011;3295;38.928;-77.052;2023-05-17T12:34:45;4.10;;;2.70;;
6523;SDS011;3295;38.928;-77.052;2023-05-17T12:37:13;4.70;;;3.10;;
6523;SDS011;3295;38.928;-77.052;2023-05-17T12:39:41;6.83;;;3.00;;
6523;SDS011;3295;38.928;-77.052;2023-05-17T12:42:10;3.97;;;2.53;;
6523;SDS011;3295;38.928;-77.052;2023-05-17T12:44:37;8.07;;;2.90;;
6523;SDS011;3295;38.928;-77.052;2023-05-17T12:47:05;5.13;;;2.93;;
6523;SDS011;3295;38.928;-77.052;2023-05-17T12:49:36;4.90;;;2.83;;
6523;SDS011;3295;38.928;-77.052;2023-05-17T12:52:04;4.87;;;2.73;;
6523;SDS011;3295;38.928;-77.052;2023-05-17T12:54:31;5.37;;;2.73;;
6523;SDS011;3295;38.928;-77.052;2023-05-17T12:57:07;6.73;;;2.97;;
6523;SDS011;3295;38.928;-77.052;2023-05-17T12:59:44;6.20;;;2.90;;
6523;SDS011;3295;38.928;-77.052;2023-05-17T13:02:11;5.00;;;2.97;;
6523;SDS011;3295;38.928;-77.052;2023-05-17T13:04:39;4.60;;;2.90;;
6523;SDS011;3295;38.928;-77.052;2023-05-17T13:07:06;5.13;;;3.10;;
6523;SDS011;3295;38.928;-77.052;2023-05-17T13:09:33;5.77;;;3.23;;
6523;SDS011;3295;38.928;-77.052;2023-05-17T13:12:11;9.93;;;3.03;;
6523;SDS011;3295;38.928;-77.052;2023-05-17T13:14:45;5.87;;;3.00;;
6523;SDS011;3295;38.928;-77.052;2023-05-17T13:17:15;5.83;;;3.17;;
6523;SDS011;3295;38.928;-77.052;2023-05-17T13:19:43;4.87;;;2.87;;
6523;SDS011;3295;38.928;-77.052;2023-05-17T13:22:10;4.30;;;2.93;;
6523;SDS011;3295;38.928;-77.052;2023-05-17T13:24:38;4.57;;;2.90;;
6523;SDS011;3295;38.928;-77.052;2023-05-17T13:27:06;4.40;;;2.80;;
6523;SDS011;3295;38.928;-77.052;2023-05-17T13:29:34;7.20;;;3.13;;
6523;SDS011;3295;38.928;-77.052;2023-05-17T13:32:03;4.83;;;3.00;;
6523;SDS011;3295;38.928;-77.052;2023-05-17T13:34:31;6.40;;;2.83;;
6523;SDS011;3295;38.928;-77.052;2023-05-17T13:36:58;6.00;;;3.10;;
6523;SDS011;3295;38.928;-77.052;2023-05-17T13:39:25;5.23;;;2.93;;
6523;SDS011;3295;38.928;-77.052;2023-05-17T13:41:52;5.83;;;3.03;;
6523;SDS011;3295;38.928;-77.052;2023-05-17T13:44:20;7.30;;;3.10;;
6523;SDS011;3295;38.928;-77.052;2023-05-17T13:46:47;3.97;;;2.60;;
6523;SDS011;3295;38.928;-77.052;2023-05-17T13:49:16;6.03;;;2.90;;
6523;SDS011;3295;38.928;-77.052;2023-05-17T13:51:43;7.30;;;3.03;;
6523;SDS011;3295;38.928;-77.052;2023-05-17T13:54:11;5.37;;;3.00;;
6523;SDS011;3295;38.928;-77.052;2023-05-17T13:56:38;6.40;;;3.27;;
6523;SDS011;3295;38.928;-77.052;2023-05-17T13:59:05;7.33;;;2.80;;
6523;SDS011;3295;38.928;-77.052;2023-05-17T14:01:33;4.17;;;2.77;;
6523;SDS011;3295;38.928;-77.052;2023-05-17T14:04:00;6.07;;;3.50;;
6523;SDS011;3295;38.928;-77.052;2023-05-17T14:06:29;4.77;;;2.93;;
6523;SDS011;3295;38.928;-77.052;2023-05-17T14:08:56;5.47;;;3.20;;
6523;SDS011;3295;38.928;-77.052;2023-05-17T14:11:25;6.43;;;3.27;;
6523;SDS011;3295;38.928;-77.052;2023-05-17T14:13:52;4.73;;;2.87;;
6523;SDS011;3295;38.928;-77.052;2023-05-17T14:16:19;4.47;;;2.93;;
6523;SDS011;3295;38.928;-77.052;2023-05-17T14:18:47;5.90;;;3.27;;
6523;SDS011;3295;38.928;-77.052;2023-05-17T14:21:15;7.47;;;3.30;;
6523;SDS011;3295;38.928;-77.052;2023-05-17T14:23:43;5.23;;;3.30;;
6523;SDS011;3295;38.928;-77.052;2023-05-17T14:26:11;6.63;;;3.20;;
6523;SDS011;3295;38.928;-77.052;2023-05-17T14:28:38;4.77;;;2.93;;
6523;SDS011;3295;38.928;-77.052;2023-05-17T14:31:06;7.10;;;3.20;;
6523;SDS011;3295;38.928;-77.052;2023-05-17T14:33:33;5.40;;;3.20;;
6523;SDS011;3295;38.928;-77.052;2023-05-17T14:36:01;5.90;;;3.07;;
6523;SDS011;3295;38.928;-77.052;2023-05-17T14:38:29;6.53;;;3.33;;
6523;SDS011;3295;38.928;-77.052;2023-05-17T14:40:58;7.17;;;3.60;;
6523;SDS011;3295;38.928;-77.052;2023-05-17T14:43:25;5.20;;;3.33;;
6523;SDS011;3295;38.928;-77.052;2023-05-17T14:45:52;7.53;;;3.47;;
6523;SDS011;3295;38.928;-77.052;2023-05-17T14:48:20;6.57;;;3.37;;
6523;SDS011;3295;38.928;-77.052;2023-05-17T14:50:47;5.70;;;3.33;;
6523;SDS011;3295;38.928;-77.052;2023-05-17T14:53:14;6.60;;;3.57;;
6523;SDS011;3295;38.928;-77.052;2023-05-17T14:55:42;5.93;;;3.20;;